createdAt,value
2018-08-24T00:00:18.440Z,23.77
2018-08-24T00:00:44.574Z,23.77
2018-08-24T00:01:10.712Z,23.78
2018-08-24T00:01:36.899Z,23.83
2018-08-24T00:02:03.035Z,23.74
2018-08-24T00:02:29.180Z,23.83
2018-08-24T00:02:55.337Z,23.83
2018-08-24T00:03:21.466Z,23.81
2018-08-24T00:03:47.631Z,23.87
2018-08-24T00:04:13.769Z,23.92
2018-08-24T00:04:39.910Z,23.87
2018-08-24T00:05:06.067Z,23.87
2018-08-24T00:05:32.208Z,23.87
2018-08-24T00:05:58.335Z,23.86
2018-08-24T00:06:24.477Z,23.84
2018-08-24T00:06:50.628Z,23.87
2018-08-24T00:07:16.789Z,23.8
2018-08-24T00:07:42.929Z,23.83
2018-08-24T00:08:09.064Z,23.81
2018-08-24T00:08:35.233Z,23.87
2018-08-24T00:09:01.363Z,23.83
2018-08-24T00:09:27.507Z,23.87
2018-08-24T00:09:53.642Z,23.83
2018-08-24T00:10:19.782Z,23.87
2018-08-24T00:10:45.930Z,23.92
2018-08-24T00:11:12.068Z,23.86
2018-08-24T00:11:38.231Z,23.83
2018-08-24T00:12:04.361Z,23.77
2018-08-24T00:12:30.506Z,23.83
2018-08-24T00:12:56.665Z,23.77
2018-08-24T00:13:22.805Z,23.81
2018-08-24T00:13:48.941Z,23.8
2018-08-24T00:14:15.092Z,23.73
2018-08-24T00:14:41.236Z,23.66
2018-08-24T00:15:07.360Z,23.68
2018-08-24T00:15:33.519Z,23.77
2018-08-24T00:15:59.676Z,23.66
2018-08-24T00:16:25.816Z,23.73
2018-08-24T00:16:51.949Z,23.65
2018-08-24T00:17:18.106Z,23.76
2018-08-24T00:17:44.298Z,23.69
2018-08-24T00:18:10.427Z,23.65
2018-08-24T00:18:36.563Z,23.66
2018-08-24T00:19:02.703Z,23.68
2018-08-24T00:19:28.835Z,23.68
2018-08-24T00:19:54.975Z,23.66
2018-08-24T00:20:21.112Z,23.71
2018-08-24T00:20:47.257Z,23.76
2018-08-24T00:21:13.395Z,23.78
2018-08-24T00:21:39.530Z,23.68
2018-08-24T00:22:05.694Z,23.71
2018-08-24T00:22:31.841Z,23.74
2018-08-24T00:22:58.016Z,23.76
2018-08-24T00:23:24.171Z,23.73
2018-08-24T00:23:50.310Z,23.71
2018-08-24T00:24:16.452Z,23.66
2018-08-24T00:24:42.583Z,23.68
2018-08-24T00:25:08.724Z,23.73
2018-08-24T00:25:34.856Z,23.73
2018-08-24T00:26:00.989Z,23.73
2018-08-24T00:26:27.128Z,23.69
2018-08-24T00:26:53.262Z,23.73
2018-08-24T00:27:19.402Z,23.59
2018-08-24T00:27:45.535Z,23.59
2018-08-24T00:28:11.663Z,23.59
2018-08-24T00:28:37.802Z,23.61
2018-08-24T00:29:03.935Z,23.61
2018-08-24T00:29:30.090Z,23.66
2018-08-24T00:29:56.254Z,23.59
2018-08-24T00:30:22.415Z,23.73
2018-08-24T00:30:48.545Z,23.71
2018-08-24T00:31:14.711Z,23.65
2018-08-24T00:31:40.871Z,23.65
2018-08-24T00:32:06.994Z,23.55
2018-08-24T00:32:33.129Z,23.66
2018-08-24T00:32:59.267Z,23.59
2018-08-24T00:33:25.403Z,23.62
2018-08-24T00:33:51.543Z,23.62
2018-08-24T00:34:17.674Z,23.68
2018-08-24T00:34:43.834Z,23.68
2018-08-24T00:35:10.018Z,23.61
2018-08-24T00:35:36.161Z,23.61
2018-08-24T00:36:02.290Z,23.59
2018-08-24T00:36:28.432Z,23.59
2018-08-24T00:36:54.564Z,23.69
2018-08-24T00:37:20.725Z,23.69
2018-08-24T00:37:46.903Z,23.61
2018-08-24T00:38:12.999Z,23.68
2018-08-24T00:38:39.135Z,23.55
2018-08-24T00:39:05.326Z,23.63
2018-08-24T00:39:31.453Z,23.58
2018-08-24T00:39:57.598Z,23.65
2018-08-24T00:40:23.724Z,23.62
2018-08-24T00:40:49.866Z,23.61
2018-08-24T00:41:15.996Z,23.51
2018-08-24T00:41:42.136Z,23.59
2018-08-24T00:42:08.270Z,23.56
2018-08-24T00:42:34.412Z,23.56
2018-08-24T00:43:00.562Z,23.51
2018-08-24T00:43:26.717Z,23.63
2018-08-24T00:43:52.854Z,23.5
2018-08-24T00:44:19.012Z,23.43
2018-08-24T00:44:45.147Z,23.44
2018-08-24T00:45:11.301Z,23.5
2018-08-24T00:45:37.445Z,23.41
2018-08-24T00:46:03.579Z,23.47
2018-08-24T00:46:29.736Z,23.41
2018-08-24T00:46:55.874Z,23.46
2018-08-24T00:47:22.034Z,23.59
2018-08-24T00:47:48.171Z,23.43
2018-08-24T00:48:14.307Z,23.41
2018-08-24T00:48:40.436Z,23.51
2018-08-24T00:49:06.577Z,23.5
2018-08-24T00:49:32.711Z,23.43
2018-08-24T00:49:58.877Z,23.48
2018-08-24T00:50:25.037Z,23.46
2018-08-24T00:50:51.168Z,23.5
2018-08-24T00:51:17.308Z,23.48
2018-08-24T00:51:43.442Z,23.37
2018-08-24T00:52:09.580Z,23.37
2018-08-24T00:52:35.733Z,23.32
2018-08-24T00:53:01.875Z,23.36
2018-08-24T00:53:28.012Z,23.39
2018-08-24T00:53:54.150Z,23.39
2018-08-24T00:54:20.281Z,23.27
2018-08-24T00:54:46.440Z,23.31
2018-08-24T00:55:12.575Z,23.37
2018-08-24T00:55:38.720Z,23.34
2018-08-24T00:56:04.868Z,23.24
2018-08-24T00:56:31.006Z,23.27
2018-08-24T00:56:57.165Z,23.34
2018-08-24T00:57:23.323Z,23.21
2018-08-24T00:57:49.458Z,23.2
2018-08-24T00:58:15.591Z,23.18
2018-08-24T00:58:41.752Z,23.2
2018-08-24T00:59:07.865Z,23.21
2018-08-24T00:59:34.005Z,23.2
2018-08-24T01:00:00.156Z,23.24
2018-08-24T01:00:26.292Z,23.27
2018-08-24T01:00:52.428Z,23.32
2018-08-24T01:01:18.568Z,23.27
2018-08-24T01:01:44.707Z,23.28
2018-08-24T01:02:10.838Z,23.31
2018-08-24T01:02:36.978Z,23.25
2018-08-24T01:03:03.106Z,23.27
2018-08-24T01:03:29.234Z,23.27
2018-08-24T01:03:55.377Z,23.21
2018-08-24T01:04:21.531Z,23.23
2018-08-24T01:04:47.670Z,23.36
2018-08-24T01:05:13.826Z,23.28
2018-08-24T01:05:39.960Z,23.21
2018-08-24T01:06:06.090Z,23.23
2018-08-24T01:06:32.230Z,23.23
2018-08-24T01:06:58.365Z,23.24
2018-08-24T01:07:24.515Z,23.21
2018-08-24T01:07:50.692Z,23.23
2018-08-24T01:08:16.829Z,23.34
2018-08-24T01:08:42.970Z,23.25
2018-08-24T01:09:09.130Z,23.39
2018-08-24T01:09:35.290Z,23.28
2018-08-24T01:10:01.445Z,23.27
2018-08-24T01:10:27.629Z,23.18
2018-08-24T01:10:53.757Z,23.21
2018-08-24T01:11:19.897Z,23.2
2018-08-24T01:11:46.029Z,23.18
2018-08-24T01:12:12.162Z,23.15
2018-08-24T01:12:38.306Z,23.15
2018-08-24T01:13:04.446Z,23.13
2018-08-24T01:13:30.574Z,23.15
2018-08-24T01:13:56.717Z,23.12
2018-08-24T01:14:22.850Z,23.12
2018-08-24T01:14:49.012Z,23.09
2018-08-24T01:15:15.148Z,23.12
2018-08-24T01:15:41.300Z,23.1
2018-08-24T01:16:07.463Z,23.13
2018-08-24T01:16:33.602Z,23.12
2018-08-24T01:16:59.760Z,23.1
2018-08-24T01:17:25.926Z,23.12
2018-08-24T01:17:52.057Z,23.13
2018-08-24T01:18:18.187Z,23.12
2018-08-24T01:18:44.326Z,23.1
2018-08-24T01:19:10.483Z,23.12
2018-08-24T01:19:36.663Z,23.09
2018-08-24T01:20:02.801Z,23.15
2018-08-24T01:20:28.933Z,23.2
2018-08-24T01:20:55.075Z,23.15
2018-08-24T01:21:21.235Z,23.17
2018-08-24T01:21:47.370Z,23.17
2018-08-24T01:22:13.524Z,23.23
2018-08-24T01:22:39.687Z,23.2
2018-08-24T01:23:05.838Z,23.17
2018-08-24T01:23:32.000Z,23.18
2018-08-24T01:23:58.137Z,23.13
2018-08-24T01:24:24.271Z,23.12
2018-08-24T01:24:50.404Z,23.12
2018-08-24T01:25:16.546Z,23.09
2018-08-24T01:25:42.697Z,23.1
2018-08-24T01:26:08.828Z,23.09
2018-08-24T01:26:34.974Z,23.09
2018-08-24T01:27:01.111Z,23.1
2018-08-24T01:27:27.245Z,23.12
2018-08-24T01:27:53.386Z,23.09
2018-08-24T01:28:19.516Z,23.09
2018-08-24T01:28:45.647Z,23.13
2018-08-24T01:29:11.787Z,23.09
2018-08-24T01:29:37.923Z,23
2018-08-24T01:30:04.079Z,23.03
2018-08-24T01:30:30.211Z,22.98
2018-08-24T01:30:56.356Z,23.02
2018-08-24T01:31:22.507Z,22.9
2018-08-24T01:31:48.670Z,22.96
2018-08-24T01:32:14.810Z,22.96
2018-08-24T01:32:40.967Z,22.98
2018-08-24T01:33:07.108Z,23.03
2018-08-24T01:33:33.243Z,23.03
2018-08-24T01:33:59.372Z,23.02
2018-08-24T01:34:25.513Z,22.99
2018-08-24T01:34:51.656Z,23.03
2018-08-24T01:35:17.820Z,23.1
2018-08-24T01:35:44.029Z,23
2018-08-24T01:36:10.179Z,23.09
2018-08-24T01:36:36.335Z,23.02
2018-08-24T01:37:02.486Z,23.13
2018-08-24T01:37:28.621Z,22.98
2018-08-24T01:37:54.750Z,23.05
2018-08-24T01:38:20.888Z,23.06
2018-08-24T01:38:47.022Z,23.18
2018-08-24T01:39:13.152Z,23.18
2018-08-24T01:39:39.317Z,23.13
2018-08-24T01:40:05.450Z,23.13
2018-08-24T01:40:31.589Z,23.05
2018-08-24T01:40:57.724Z,23.17
2018-08-24T01:41:23.855Z,23.13
2018-08-24T01:41:49.996Z,23.12
2018-08-24T01:42:16.134Z,23.09
2018-08-24T01:42:42.272Z,23.05
2018-08-24T01:43:08.409Z,23
2018-08-24T01:43:34.549Z,23.05
2018-08-24T01:44:00.687Z,23.13
2018-08-24T01:44:26.825Z,22.98
2018-08-24T01:44:52.961Z,22.96
2018-08-24T01:45:19.094Z,22.98
2018-08-24T01:45:45.233Z,22.98
2018-08-24T01:46:11.370Z,23.05
2018-08-24T01:46:37.503Z,22.99
2018-08-24T01:47:03.642Z,23.05
2018-08-24T01:47:29.778Z,23
2018-08-24T01:47:55.916Z,22.93
2018-08-24T01:48:22.050Z,22.9
2018-08-24T01:48:48.185Z,22.87
2018-08-24T01:49:14.321Z,22.94
2018-08-24T01:49:40.451Z,22.88
2018-08-24T01:50:06.594Z,22.91
2018-08-24T01:50:32.752Z,22.94
2018-08-24T01:50:58.893Z,22.91
2018-08-24T01:51:25.027Z,22.9
2018-08-24T01:51:51.162Z,23
2018-08-24T01:52:17.316Z,22.96
2018-08-24T01:52:43.460Z,23.03
2018-08-24T01:53:09.604Z,22.98
2018-08-24T01:53:35.741Z,23
2018-08-24T01:54:01.884Z,23.05
2018-08-24T01:54:28.014Z,23.05
2018-08-24T01:54:54.156Z,22.99
2018-08-24T01:55:20.284Z,22.99
2018-08-24T01:55:46.419Z,22.96
2018-08-24T01:56:12.556Z,23.09
2018-08-24T01:56:38.696Z,23.09
2018-08-24T01:57:04.852Z,22.98
2018-08-24T01:57:30.994Z,23.06
2018-08-24T01:57:57.126Z,23.05
2018-08-24T01:58:23.286Z,23.02
2018-08-24T01:58:49.431Z,23.1
2018-08-24T01:59:15.573Z,23.06
2018-08-24T01:59:41.712Z,23.03
2018-08-24T02:00:07.869Z,23.12
2018-08-24T02:00:34.002Z,23.02
2018-08-24T02:01:00.133Z,23.05
2018-08-24T02:01:26.271Z,23.03
2018-08-24T02:01:52.425Z,22.99
2018-08-24T02:02:18.573Z,23
2018-08-24T02:02:44.712Z,23
2018-08-24T02:03:10.843Z,23
2018-08-24T02:03:37.004Z,22.94
2018-08-24T02:04:03.138Z,22.85
2018-08-24T02:04:29.270Z,22.96
2018-08-24T02:04:55.416Z,22.96
2018-08-24T02:05:21.548Z,22.87
2018-08-24T02:05:47.681Z,22.88
2018-08-24T02:06:13.847Z,22.91
2018-08-24T02:06:39.983Z,22.93
2018-08-24T02:07:06.116Z,22.96
2018-08-24T02:07:32.248Z,22.91
2018-08-24T02:07:58.382Z,22.96
2018-08-24T02:08:24.516Z,22.94
2018-08-24T02:08:50.656Z,22.88
2018-08-24T02:09:16.788Z,22.93
2018-08-24T02:09:42.922Z,22.91
2018-08-24T02:10:09.082Z,22.94
2018-08-24T02:10:35.216Z,22.88
2018-08-24T02:11:01.349Z,22.87
2018-08-24T02:11:27.488Z,22.87
2018-08-24T02:11:53.627Z,22.8
2018-08-24T02:12:19.755Z,22.84
2018-08-24T02:12:45.898Z,22.72
2018-08-24T02:13:12.084Z,22.7
2018-08-24T02:13:38.215Z,22.75
2018-08-24T02:14:04.346Z,22.72
2018-08-24T02:14:30.575Z,22.68
2018-08-24T02:14:56.639Z,22.68
2018-08-24T02:15:22.769Z,22.68
2018-08-24T02:15:48.902Z,22.6
2018-08-24T02:16:15.036Z,22.69
2018-08-24T02:16:41.174Z,22.68
2018-08-24T02:17:07.304Z,22.68
2018-08-24T02:17:33.447Z,22.68
2018-08-24T02:17:59.578Z,22.73
2018-08-24T02:18:25.711Z,22.72
2018-08-24T02:18:51.847Z,22.75
2018-08-24T02:19:18.003Z,22.69
2018-08-24T02:19:44.158Z,22.66
2018-08-24T02:20:10.297Z,22.68
2018-08-24T02:20:36.434Z,22.66
2018-08-24T02:21:02.618Z,22.69
2018-08-24T02:21:28.748Z,22.68
2018-08-24T02:21:54.902Z,22.65
2018-08-24T02:22:21.035Z,22.65
2018-08-24T02:22:47.168Z,22.69
2018-08-24T02:23:13.307Z,22.73
2018-08-24T02:23:39.437Z,22.66
2018-08-24T02:24:05.601Z,22.69
2018-08-24T02:24:31.729Z,22.65
2018-08-24T02:24:57.864Z,22.63
2018-08-24T02:25:24.022Z,22.6
2018-08-24T02:25:50.162Z,22.53
2018-08-24T02:26:16.302Z,22.62
2018-08-24T02:26:42.458Z,22.6
2018-08-24T02:27:08.603Z,22.65
2018-08-24T02:27:34.740Z,22.59
2018-08-24T02:28:00.874Z,22.63
2018-08-24T02:28:27.009Z,22.59
2018-08-24T02:28:53.149Z,22.63
2018-08-24T02:29:19.285Z,22.65
2018-08-24T02:29:45.420Z,22.63
2018-08-24T02:30:11.580Z,22.63
2018-08-24T02:30:37.738Z,22.65
2018-08-24T02:31:03.910Z,22.65
2018-08-24T02:31:30.090Z,22.68
2018-08-24T02:31:56.218Z,22.6
2018-08-24T02:32:22.364Z,22.55
2018-08-24T02:32:48.517Z,22.55
2018-08-24T02:33:14.657Z,22.62
2018-08-24T02:33:40.791Z,22.68
2018-08-24T02:34:06.950Z,22.63
2018-08-24T02:34:33.105Z,22.55
2018-08-24T02:34:59.243Z,22.62
2018-08-24T02:35:25.373Z,22.59
2018-08-24T02:35:51.502Z,22.55
2018-08-24T02:36:17.639Z,22.5
2018-08-24T02:36:43.767Z,22.53
2018-08-24T02:37:09.904Z,22.53
2018-08-24T02:37:36.041Z,22.47
2018-08-24T02:38:02.179Z,22.39
2018-08-24T02:38:28.337Z,22.41
2018-08-24T02:38:54.517Z,22.41
2018-08-24T02:39:20.659Z,22.41
2018-08-24T02:39:46.813Z,22.41
2018-08-24T02:40:12.974Z,22.39
2018-08-24T02:40:39.135Z,22.44
2018-08-24T02:41:05.276Z,22.38
2018-08-24T02:41:31.417Z,22.44
2018-08-24T02:41:57.540Z,22.36
2018-08-24T02:42:23.702Z,22.33
2018-08-24T02:42:49.858Z,22.28
2018-08-24T02:43:16.019Z,22.3
2018-08-24T02:43:42.154Z,22.35
2018-08-24T02:44:08.289Z,22.3
2018-08-24T02:44:34.431Z,22.26
2018-08-24T02:45:00.647Z,22.3
2018-08-24T02:45:26.733Z,22.25
2018-08-24T02:45:52.870Z,22.26
2018-08-24T02:46:18.999Z,22.28
2018-08-24T02:46:45.136Z,22.22
2018-08-24T02:47:11.267Z,22.18
2018-08-24T02:47:37.475Z,22.18
2018-08-24T02:48:03.612Z,22.18
2018-08-24T02:48:29.748Z,22.22
2018-08-24T02:48:55.882Z,22.28
2018-08-24T02:49:22.021Z,22.22
2018-08-24T02:49:48.174Z,22.22
2018-08-24T02:50:14.312Z,22.2
2018-08-24T02:50:40.443Z,22.22
2018-08-24T02:51:06.607Z,22.17
2018-08-24T02:51:32.752Z,22.25
2018-08-24T02:51:58.881Z,22.15
2018-08-24T02:52:25.019Z,22.13
2018-08-24T02:52:51.206Z,22.18
2018-08-24T02:53:17.333Z,22.15
2018-08-24T02:53:43.494Z,22.04
2018-08-24T02:54:09.626Z,22.1
2018-08-24T02:54:35.779Z,21.95
2018-08-24T02:55:02.370Z,22.11
2018-08-24T02:55:28.503Z,22.06
2018-08-24T02:55:54.638Z,21.99
2018-08-24T02:56:20.773Z,21.98
2018-08-24T02:56:46.910Z,21.99
2018-08-24T02:57:13.062Z,21.92
2018-08-24T02:57:39.180Z,21.85
2018-08-24T02:58:05.328Z,21.82
2018-08-24T02:58:31.496Z,21.8
2018-08-24T02:58:57.657Z,21.92
2018-08-24T02:59:23.788Z,21.88
2018-08-24T02:59:49.924Z,21.92
2018-08-24T03:00:16.063Z,21.85
2018-08-24T03:00:42.202Z,22
2018-08-24T03:01:08.333Z,21.93
2018-08-24T03:01:34.470Z,21.89
2018-08-24T03:02:00.624Z,21.99
2018-08-24T03:02:26.784Z,22
2018-08-24T03:02:52.962Z,21.99
2018-08-24T03:03:19.093Z,22.06
2018-08-24T03:03:45.228Z,22
2018-08-24T03:04:11.357Z,21.96
2018-08-24T03:04:37.489Z,22.04
2018-08-24T03:05:03.727Z,21.88
2018-08-24T03:05:29.908Z,21.96
2018-08-24T03:05:55.931Z,21.83
2018-08-24T03:06:22.085Z,21.79
2018-08-24T03:06:48.227Z,21.89
2018-08-24T03:07:14.357Z,21.93
2018-08-24T03:07:40.516Z,21.8
2018-08-24T03:08:06.751Z,21.91
2018-08-24T03:08:32.838Z,21.91
2018-08-24T03:08:58.996Z,21.82
2018-08-24T03:09:25.131Z,21.89
2018-08-24T03:09:51.273Z,21.93
2018-08-24T03:10:17.427Z,21.83
2018-08-24T03:10:43.559Z,21.95
2018-08-24T03:11:09.686Z,21.91
2018-08-24T03:11:35.817Z,21.99
2018-08-24T03:12:01.987Z,21.95
2018-08-24T03:12:28.141Z,21.93
2018-08-24T03:12:54.281Z,21.85
2018-08-24T03:13:20.408Z,21.8
2018-08-24T03:13:46.549Z,21.83
2018-08-24T03:14:12.697Z,21.8
2018-08-24T03:14:38.862Z,21.83
2018-08-24T03:15:04.993Z,21.77
2018-08-24T03:15:31.139Z,21.83
2018-08-24T03:15:57.351Z,21.79
2018-08-24T03:16:23.486Z,21.76
2018-08-24T03:16:49.574Z,21.79
2018-08-24T03:17:15.728Z,21.8
2018-08-24T03:17:41.896Z,21.79
2018-08-24T03:18:08.051Z,21.83
2018-08-24T03:18:34.186Z,21.77
2018-08-24T03:19:00.357Z,21.82
2018-08-24T03:19:26.505Z,21.76
2018-08-24T03:19:52.681Z,21.8
2018-08-24T03:20:18.818Z,21.83
2018-08-24T03:20:44.956Z,21.79
2018-08-24T03:21:11.090Z,21.98
2018-08-24T03:21:37.252Z,21.98
2018-08-24T03:22:03.412Z,21.98
2018-08-24T03:22:29.595Z,21.88
2018-08-24T03:22:55.755Z,21.96
2018-08-24T03:23:21.888Z,21.95
2018-08-24T03:23:48.017Z,21.91
2018-08-24T03:24:14.174Z,21.91
2018-08-24T03:24:40.314Z,21.95
2018-08-24T03:25:06.446Z,21.99
2018-08-24T03:25:32.587Z,22
2018-08-24T03:25:58.721Z,21.93
2018-08-24T03:26:24.866Z,21.92
2018-08-24T03:26:50.997Z,21.96
2018-08-24T03:27:17.130Z,22.02
2018-08-24T03:27:43.267Z,21.98
2018-08-24T03:28:09.399Z,21.91
2018-08-24T03:28:35.558Z,21.95
2018-08-24T03:29:01.697Z,21.92
2018-08-24T03:29:27.848Z,21.93
2018-08-24T03:29:53.980Z,21.92
2018-08-24T03:30:20.184Z,21.91
2018-08-24T03:30:46.363Z,21.82
2018-08-24T03:31:12.499Z,21.8
2018-08-24T03:31:38.667Z,21.79
2018-08-24T03:32:04.805Z,21.72
2018-08-24T03:32:30.955Z,21.75
2018-08-24T03:32:57.118Z,21.67
2018-08-24T03:33:23.257Z,21.7
2018-08-24T03:33:49.437Z,21.7
2018-08-24T03:34:15.567Z,21.73
2018-08-24T03:34:41.733Z,21.67
2018-08-24T03:35:07.935Z,21.73
2018-08-24T03:35:34.091Z,21.57
2018-08-24T03:36:00.247Z,21.58
2018-08-24T03:36:26.387Z,21.6
2018-08-24T03:36:52.551Z,21.64
2018-08-24T03:37:18.682Z,21.6
2018-08-24T03:37:44.817Z,21.54
2018-08-24T03:38:10.977Z,21.54
2018-08-24T03:38:37.159Z,21.55
2018-08-24T03:39:03.294Z,21.57
2018-08-24T03:39:29.432Z,21.58
2018-08-24T03:39:55.560Z,21.5
2018-08-24T03:40:21.692Z,21.46
2018-08-24T03:40:47.830Z,21.43
2018-08-24T03:41:13.993Z,21.45
2018-08-24T03:41:40.127Z,21.36
2018-08-24T03:42:06.257Z,21.33
2018-08-24T03:42:32.397Z,21.35
2018-08-24T03:42:58.560Z,21.29
2018-08-24T03:43:24.740Z,21.33
2018-08-24T03:43:50.893Z,21.27
2018-08-24T03:44:17.025Z,21.27
2018-08-24T03:44:43.207Z,21.22
2018-08-24T03:45:09.341Z,21.25
2018-08-24T03:45:35.511Z,21.2
2018-08-24T03:46:01.757Z,21.24
2018-08-24T03:46:27.791Z,21.18
2018-08-24T03:46:53.941Z,21.21
2018-08-24T03:47:20.105Z,21.15
2018-08-24T03:47:46.258Z,21.05
2018-08-24T03:48:12.446Z,21.18
2018-08-24T03:48:38.580Z,21.17
2018-08-24T03:49:04.766Z,21.12
2018-08-24T03:49:30.895Z,21.12
2018-08-24T03:49:57.030Z,21.12
2018-08-24T03:50:23.167Z,21.14
2018-08-24T03:50:49.304Z,21.09
2018-08-24T03:51:15.434Z,21.09
2018-08-24T03:51:41.565Z,21.11
2018-08-24T03:52:07.703Z,21.12
2018-08-24T03:52:33.858Z,21.07
2018-08-24T03:53:00.126Z,21.11
2018-08-24T03:53:26.170Z,21.07
2018-08-24T03:53:52.305Z,21.09
2018-08-24T03:54:18.440Z,21.14
2018-08-24T03:54:44.575Z,21.06
2018-08-24T03:55:10.736Z,21.12
2018-08-24T03:55:36.927Z,21.12
2018-08-24T03:56:03.080Z,21.02
2018-08-24T03:56:29.215Z,21.09
2018-08-24T03:56:55.353Z,21.06
2018-08-24T03:57:21.488Z,21.11
2018-08-24T03:57:47.649Z,21.09
2018-08-24T03:58:13.803Z,21.09
2018-08-24T03:58:39.960Z,21.14
2018-08-24T03:59:06.092Z,21.11
2018-08-24T03:59:32.225Z,21.12
2018-08-24T03:59:58.358Z,21.11
2018-08-24T04:00:24.513Z,21.17
2018-08-24T04:00:50.642Z,21.11
2018-08-24T04:01:16.772Z,21.07
2018-08-24T04:01:42.910Z,21.11
2018-08-24T04:02:09.046Z,21.12
2018-08-24T04:02:35.186Z,21.11
2018-08-24T04:03:01.319Z,21.12
2018-08-24T04:03:27.509Z,21.17
2018-08-24T04:03:53.596Z,21.11
2018-08-24T04:04:19.759Z,21.07
2018-08-24T04:04:45.906Z,21.11
2018-08-24T04:05:12.037Z,21.07
2018-08-24T04:05:38.194Z,21.12
2018-08-24T04:06:04.330Z,21.15
2018-08-24T04:06:30.455Z,21.09
2018-08-24T04:06:56.613Z,21.12
2018-08-24T04:07:22.749Z,21.11
2018-08-24T04:07:48.882Z,21.11
2018-08-24T04:08:15.021Z,21.09
2018-08-24T04:08:41.159Z,21.06
2018-08-24T04:09:07.310Z,21.11
2018-08-24T04:09:33.444Z,21.11
2018-08-24T04:09:59.586Z,21.09
2018-08-24T04:10:25.757Z,21.07
2018-08-24T04:10:51.938Z,21.11
2018-08-24T04:11:18.088Z,21.09
2018-08-24T04:11:44.218Z,21.14
2018-08-24T04:12:10.357Z,21.14
2018-08-24T04:12:36.546Z,21.12
2018-08-24T04:13:02.722Z,21.11
2018-08-24T04:13:28.860Z,21.09
2018-08-24T04:13:55.015Z,21.15
2018-08-24T04:14:21.150Z,21.03
2018-08-24T04:14:47.316Z,21.06
2018-08-24T04:15:13.454Z,21.06
2018-08-24T04:15:39.613Z,21.02
2018-08-24T04:16:05.732Z,21.05
2018-08-24T04:16:31.874Z,20.92
2018-08-24T04:16:58.003Z,20.97
2018-08-24T04:17:24.187Z,20.96
2018-08-24T04:17:50.319Z,20.95
2018-08-24T04:18:16.479Z,20.97
2018-08-24T04:18:42.636Z,20.96
2018-08-24T04:19:08.797Z,20.93
2018-08-24T04:19:35.081Z,20.9
2018-08-24T04:20:01.104Z,20.9
2018-08-24T04:20:27.238Z,20.88
2018-08-24T04:20:53.416Z,20.87
2018-08-24T04:21:19.573Z,20.93
2018-08-24T04:21:45.706Z,20.93
2018-08-24T04:22:11.845Z,20.96
2018-08-24T04:22:37.979Z,20.92
2018-08-24T04:23:04.110Z,20.96
2018-08-24T04:23:30.272Z,20.93
2018-08-24T04:23:56.429Z,20.87
2018-08-24T04:24:22.590Z,20.92
2018-08-24T04:24:48.722Z,20.88
2018-08-24T04:25:14.862Z,20.88
2018-08-24T04:25:41.117Z,20.95
2018-08-24T04:26:07.337Z,20.88
2018-08-24T04:26:33.378Z,20.88
2018-08-24T04:26:59.514Z,20.92
2018-08-24T04:27:25.653Z,20.97
2018-08-24T04:27:51.786Z,20.92
2018-08-24T04:28:17.947Z,20.9
2018-08-24T04:28:44.086Z,20.9
2018-08-24T04:29:10.239Z,20.95
2018-08-24T04:29:36.395Z,20.9
2018-08-24T04:30:02.553Z,21.03
2018-08-24T04:30:28.760Z,20.99
2018-08-24T04:30:54.972Z,21
2018-08-24T04:31:21.096Z,20.96
2018-08-24T04:31:47.253Z,20.93
2018-08-24T04:32:13.389Z,20.97
2018-08-24T04:32:39.551Z,20.99
2018-08-24T04:33:05.722Z,20.97
2018-08-24T04:33:31.846Z,20.96
2018-08-24T04:33:57.987Z,20.99
2018-08-24T04:34:24.126Z,20.9
2018-08-24T04:34:50.321Z,20.95
2018-08-24T04:35:16.487Z,20.9
2018-08-24T04:35:42.619Z,20.9
2018-08-24T04:36:08.776Z,20.92
2018-08-24T04:36:34.934Z,20.9
2018-08-24T04:37:01.064Z,20.92
2018-08-24T04:37:27.225Z,20.9
2018-08-24T04:37:53.363Z,20.88
2018-08-24T04:38:19.521Z,20.95
2018-08-24T04:38:45.651Z,20.92
2018-08-24T04:39:11.792Z,20.95
2018-08-24T04:39:37.953Z,20.97
2018-08-24T04:40:04.147Z,20.9
2018-08-24T04:40:30.555Z,20.92
2018-08-24T04:40:56.481Z,20.95
2018-08-24T04:41:22.653Z,20.84
2018-08-24T04:41:48.788Z,20.82
2018-08-24T04:42:14.928Z,20.84
2018-08-24T04:42:41.061Z,20.77
2018-08-24T04:43:07.193Z,20.8
2018-08-24T04:43:33.355Z,20.81
2018-08-24T04:43:59.493Z,20.88
2018-08-24T04:44:25.654Z,20.85
2018-08-24T04:44:51.786Z,20.85
2018-08-24T04:45:17.950Z,20.84
2018-08-24T04:45:44.081Z,20.82
2018-08-24T04:46:10.242Z,20.77
2018-08-24T04:46:36.378Z,20.84
2018-08-24T04:47:02.539Z,20.82
2018-08-24T04:47:28.720Z,20.77
2018-08-24T04:47:54.879Z,20.81
2018-08-24T04:48:21.017Z,20.9
2018-08-24T04:48:47.176Z,20.9
2018-08-24T04:49:13.307Z,20.88
2018-08-24T04:49:39.438Z,20.9
2018-08-24T04:50:05.580Z,20.93
2018-08-24T04:50:31.742Z,20.82
2018-08-24T04:50:57.873Z,20.87
2018-08-24T04:51:24.061Z,20.82
2018-08-24T04:51:50.161Z,20.84
2018-08-24T04:52:16.293Z,20.81
2018-08-24T04:52:42.433Z,20.84
2018-08-24T04:53:08.570Z,20.81
2018-08-24T04:53:34.707Z,20.75
2018-08-24T04:54:00.841Z,20.69
2018-08-24T04:54:26.976Z,20.72
2018-08-24T04:54:53.131Z,20.77
2018-08-24T04:55:19.285Z,20.8
2018-08-24T04:55:45.476Z,20.81
2018-08-24T04:56:11.630Z,20.74
2018-08-24T04:56:37.786Z,20.84
2018-08-24T04:57:03.917Z,20.8
2018-08-24T04:57:30.055Z,20.8
2018-08-24T04:57:56.184Z,20.81
2018-08-24T04:58:22.371Z,20.77
2018-08-24T04:58:48.482Z,20.78
2018-08-24T04:59:14.663Z,20.82
2018-08-24T04:59:40.797Z,20.78
2018-08-24T05:00:06.932Z,20.78
2018-08-24T05:00:33.117Z,20.8
2018-08-24T05:00:59.251Z,20.78
2018-08-24T05:01:25.379Z,20.84
2018-08-24T05:01:51.517Z,20.8
2018-08-24T05:02:17.677Z,20.74
2018-08-24T05:02:43.838Z,20.77
2018-08-24T05:03:10.036Z,20.75
2018-08-24T05:03:36.134Z,20.77
2018-08-24T05:04:02.319Z,20.81
2018-08-24T05:04:28.451Z,20.78
2018-08-24T05:04:54.607Z,20.82
2018-08-24T05:05:20.741Z,20.78
2018-08-24T05:05:46.970Z,20.75
2018-08-24T05:06:13.030Z,20.7
2018-08-24T05:06:39.168Z,20.74
2018-08-24T05:07:05.304Z,20.77
2018-08-24T05:07:31.466Z,20.82
2018-08-24T05:07:57.598Z,20.84
2018-08-24T05:08:23.728Z,20.82
2018-08-24T05:08:49.866Z,20.82
2018-08-24T05:09:16.028Z,20.81
2018-08-24T05:09:42.185Z,20.87
2018-08-24T05:10:08.326Z,20.81
2018-08-24T05:10:34.487Z,20.85
2018-08-24T05:11:00.626Z,20.88
2018-08-24T05:11:26.774Z,20.87
2018-08-24T05:11:52.914Z,20.9
2018-08-24T05:12:19.047Z,20.9
2018-08-24T05:12:45.180Z,20.93
2018-08-24T05:13:11.319Z,20.88
2018-08-24T05:13:37.469Z,20.92
2018-08-24T05:14:03.604Z,20.87
2018-08-24T05:14:29.737Z,20.87
2018-08-24T05:14:55.922Z,20.8
2018-08-24T05:15:22.100Z,20.84
2018-08-24T05:15:48.260Z,20.77
2018-08-24T05:16:14.408Z,20.78
2018-08-24T05:16:40.548Z,20.7
2018-08-24T05:17:06.687Z,20.75
2018-08-24T05:17:32.821Z,20.82
2018-08-24T05:17:58.990Z,20.84
2018-08-24T05:18:25.176Z,20.82
2018-08-24T05:18:51.252Z,20.81
2018-08-24T05:19:17.417Z,20.81
2018-08-24T05:19:43.562Z,20.81
2018-08-24T05:20:09.705Z,20.87
2018-08-24T05:20:35.839Z,20.77
2018-08-24T05:21:01.976Z,20.72
2018-08-24T05:21:28.170Z,20.7
2018-08-24T05:21:54.261Z,20.74
2018-08-24T05:22:20.440Z,20.74
2018-08-24T05:22:46.577Z,20.69
2018-08-24T05:23:12.718Z,20.69
2018-08-24T05:23:38.849Z,20.66
2018-08-24T05:24:04.983Z,20.65
2018-08-24T05:24:31.118Z,20.65
2018-08-24T05:24:57.299Z,20.62
2018-08-24T05:25:23.459Z,20.62
2018-08-24T05:25:49.614Z,20.55
2018-08-24T05:26:15.749Z,20.62
2018-08-24T05:26:41.889Z,20.65
2018-08-24T05:27:08.020Z,20.65
2018-08-24T05:27:34.156Z,20.65
2018-08-24T05:28:00.384Z,20.69
2018-08-24T05:28:26.461Z,20.65
2018-08-24T05:28:52.601Z,20.67
2018-08-24T05:29:18.768Z,20.69
2018-08-24T05:29:44.899Z,20.63
2018-08-24T05:30:11.049Z,20.67
2018-08-24T05:30:37.189Z,20.6
2018-08-24T05:31:03.334Z,20.65
2018-08-24T05:31:29.522Z,20.69
2018-08-24T05:31:55.691Z,20.63
2018-08-24T05:32:21.826Z,20.74
2018-08-24T05:32:47.985Z,20.75
2018-08-24T05:33:14.118Z,20.78
2018-08-24T05:33:40.248Z,20.78
2018-08-24T05:34:06.412Z,20.72
2018-08-24T05:34:32.547Z,20.72
2018-08-24T05:34:58.680Z,20.69
2018-08-24T05:35:24.824Z,20.66
2018-08-24T05:35:50.978Z,20.67
2018-08-24T05:36:17.113Z,20.74
2018-08-24T05:36:43.248Z,20.67
2018-08-24T05:37:09.388Z,20.66
2018-08-24T05:37:35.512Z,20.67
2018-08-24T05:38:01.658Z,20.58
2018-08-24T05:38:27.781Z,20.69